sensor_id;sensor_type;location;lat;lon;timestamp;P1;durP1;ratioP1;P2;durP2;ratioP2
950;SDS011;462;48.758;9.256;2022-08-01T00:04:15;3.60;;;3.30;;
950;SDS011;462;48.758;9.256;2022-08-01T00:12:19;3.13;;;2.83;;
950;SDS011;462;48.758;9.256;2022-08-01T00:20:21;3.50;;;2.90;;
950;SDS011;462;48.758;9.256;2022-08-01T00:28:25;3.93;;;2.70;;
950;SDS011;462;48.758;9.256;2022-08-01T00:36:28;3.37;;;3.07;;
950;SDS011;462;48.758;9.256;2022-08-01T00:44:32;3.33;;;3.13;;
950;SDS011;462;48.758;9.256;2022-08-01T00:52:34;3.60;;;3.30;;
950;SDS011;462;48.758;9.256;2022-08-01T01:00:38;3.73;;;3.43;;
950;SDS011;462;48.758;9.256;2022-08-01T01:08:41;3.83;;;3.53;;
950;SDS011;462;48.758;9.256;2022-08-01T01:16:52;3.87;;;3.57;;
950;SDS011;462;48.758;9.256;2022-08-01T01:25:04;4.20;;;3.80;;
950;SDS011;462;48.758;9.256;2022-08-01T01:33:12;3.63;;;3.30;;
950;SDS011;462;48.758;9.256;2022-08-01T01:41:16;6.93;;;3.67;;
950;SDS011;462;48.758;9.256;2022-08-01T01:49:21;3.70;;;3.40;;
950;SDS011;462;48.758;9.256;2022-08-01T01:57:24;3.43;;;3.13;;
950;SDS011;462;48.758;9.256;2022-08-01T02:05:29;3.93;;;3.60;;
950;SDS011;462;48.758;9.256;2022-08-01T02:13:34;4.03;;;3.63;;
950;SDS011;462;48.758;9.256;2022-08-01T02:21:40;4.40;;;4.00;;
950;SDS011;462;48.758;9.256;2022-08-01T02:29:47;4.73;;;4.10;;
950;SDS011;462;48.758;9.256;2022-08-01T02:37:55;4.53;;;3.73;;
950;SDS011;462;48.758;9.256;2022-08-01T02:46:00;4.00;;;3.70;;
950;SDS011;462;48.758;9.256;2022-08-01T02:54:07;4.30;;;3.47;;
950;SDS011;462;48.758;9.256;2022-08-01T03:02:10;3.70;;;3.40;;
950;SDS011;462;48.758;9.256;2022-08-01T03:10:14;4.13;;;3.83;;
950;SDS011;462;48.758;9.256;2022-08-01T03:18:18;4.07;;;3.77;;
950;SDS011;462;48.758;9.256;2022-08-01T03:26:22;4.57;;;4.17;;
950;SDS011;462;48.758;9.256;2022-08-01T03:34:26;5.20;;;4.30;;
950;SDS011;462;48.758;9.256;2022-08-01T03:42:32;4.27;;;3.87;;
950;SDS011;462;48.758;9.256;2022-08-01T03:50:36;4.33;;;4.03;;
950;SDS011;462;48.758;9.256;2022-08-01T03:58:44;5.03;;;4.63;;
950;SDS011;462;48.758;9.256;2022-08-01T04:06:47;4.00;;;3.70;;
950;SDS011;462;48.758;9.256;2022-08-01T04:14:55;5.10;;;3.93;;
950;SDS011;462;48.758;9.256;2022-08-01T04:22:58;4.30;;;3.90;;
950;SDS011;462;48.758;9.256;2022-08-01T04:31:02;5.00;;;4.60;;
950;SDS011;462;48.758;9.256;2022-08-01T04:39:06;4.47;;;4.07;;
950;SDS011;462;48.758;9.256;2022-08-01T04:47:11;6.27;;;4.10;;
950;SDS011;462;48.758;9.256;2022-08-01T04:55:14;6.70;;;4.80;;
950;SDS011;462;48.758;9.256;2022-08-01T05:03:19;4.40;;;4.00;;
950;SDS011;462;48.758;9.256;2022-08-01T05:11:21;4.50;;;4.10;;
950;SDS011;462;48.758;9.256;2022-08-01T05:19:25;5.50;;;5.00;;
950;SDS011;462;48.758;9.256;2022-08-01T05:27:27;6.13;;;4.67;;
950;SDS011;462;48.758;9.256;2022-08-01T05:35:31;6.10;;;4.83;;
950;SDS011;462;48.758;9.256;2022-08-01T05:43:33;5.33;;;4.90;;
950;SDS011;462;48.758;9.256;2022-08-01T05:51:37;6.90;;;4.60;;
950;SDS011;462;48.758;9.256;2022-08-01T05:59:40;8.00;;;4.60;;
950;SDS011;462;48.758;9.256;2022-08-01T06:07:43;5.00;;;4.47;;
950;SDS011;462;48.758;9.256;2022-08-01T06:15:46;4.90;;;4.50;;
950;SDS011;462;48.758;9.256;2022-08-01T06:23:50;5.57;;;4.60;;
950;SDS011;462;48.758;9.256;2022-08-01T06:31:52;4.97;;;4.57;;
950;SDS011;462;48.758;9.256;2022-08-01T06:39:56;7.30;;;4.40;;
950;SDS011;462;48.758;9.256;2022-08-01T06:48:02;3.87;;;3.33;;
950;SDS011;462;48.758;9.256;2022-08-01T06:56:07;4.53;;;3.00;;
950;SDS011;462;48.758;9.256;2022-08-01T07:04:09;1.73;;;1.63;;
950;SDS011;462;48.758;9.256;2022-08-01T07:12:13;2.73;;;1.90;;
950;SDS011;462;48.758;9.256;2022-08-01T07:20:15;2.07;;;1.87;;
950;SDS011;462;48.758;9.256;2022-08-01T07:28:19;2.13;;;1.80;;
950;SDS011;462;48.758;9.256;2022-08-01T07:36:22;2.07;;;1.97;;
950;SDS011;462;48.758;9.256;2022-08-01T07:44:25;6.37;;;2.23;;
950;SDS011;462;48.758;9.256;2022-08-01T07:52:28;1.80;;;1.70;;
950;SDS011;462;48.758;9.256;2022-08-01T08:00:32;5.60;;;5.10;;
950;SDS011;462;48.758;9.256;2022-08-01T08:08:35;2.40;;;2.27;;
950;SDS011;462;48.758;9.256;2022-08-01T08:16:38;3.10;;;2.17;;
950;SDS011;462;48.758;9.256;2022-08-01T08:24:41;3.57;;;2.87;;
950;SDS011;462;48.758;9.256;2022-08-01T08:32:45;2.53;;;2.33;;
950;SDS011;462;48.758;9.256;2022-08-01T08:40:48;2.73;;;2.53;;
950;SDS011;462;48.758;9.256;2022-08-01T08:48:51;2.57;;;2.37;;
950;SDS011;462;48.758;9.256;2022-08-01T08:56:54;3.23;;;2.87;;
950;SDS011;462;48.758;9.256;2022-08-01T09:04:58;4.33;;;3.10;;
950;SDS011;462;48.758;9.256;2022-08-01T09:13:01;3.50;;;3.20;;
950;SDS011;462;48.758;9.256;2022-08-01T09:21:11;4.63;;;3.63;;
950;SDS011;462;48.758;9.256;2022-08-01T09:29:17;5.27;;;4.07;;
950;SDS011;462;48.758;9.256;2022-08-01T09:37:24;5.60;;;5.10;;
950;SDS011;462;48.758;9.256;2022-08-01T09:45:31;5.60;;;5.10;;
950;SDS011;462;48.758;9.256;2022-08-01T09:53:43;6.07;;;5.50;;
950;SDS011;462;48.758;9.256;2022-08-01T10:01:48;6.87;;;6.03;;
950;SDS011;462;48.758;9.256;2022-08-01T10:09:52;5.40;;;5.00;;
950;SDS011;462;48.758;9.256;2022-08-01T10:17:56;6.23;;;5.73;;
950;SDS011;462;48.758;9.256;2022-08-01T10:26:01;7.57;;;6.90;;
950;SDS011;462;48.758;9.256;2022-08-01T10:34:04;5.97;;;5.47;;
950;SDS011;462;48.758;9.256;2022-08-01T10:42:09;6.30;;;5.80;;
950;SDS011;462;48.758;9.256;2022-08-01T10:50:13;4.83;;;3.83;;
950;SDS011;462;48.758;9.256;2022-08-01T10:58:24;4.63;;;4.23;;
950;SDS011;462;48.758;9.256;2022-08-01T11:06:35;4.37;;;4.07;;
950;SDS011;462;48.758;9.256;2022-08-01T11:23:25;7.97;;;4.90;;
950;SDS011;462;48.758;9.256;2022-08-01T11:31:34;4.13;;;3.53;;
950;SDS011;462;48.758;9.256;2022-08-01T11:39:36;3.93;;;3.63;;
950;SDS011;462;48.758;9.256;2022-08-01T11:47:44;6.77;;;3.77;;
950;SDS011;462;48.758;9.256;2022-08-01T11:55:49;4.27;;;3.87;;
950;SDS011;462;48.758;9.256;2022-08-01T12:03:56;5.83;;;3.70;;
950;SDS011;462;48.758;9.256;2022-08-01T12:11:58;4.37;;;3.10;;
950;SDS011;462;48.758;9.256;2022-08-01T12:20:03;3.03;;;2.83;;
950;SDS011;462;48.758;9.256;2022-08-01T12:28:07;4.03;;;3.10;;
950;SDS011;462;48.758;9.256;2022-08-01T12:36:14;3.43;;;3.23;;
950;SDS011;462;48.758;9.256;2022-08-01T12:44:29;3.13;;;2.67;;
950;SDS011;462;48.758;9.256;2022-08-01T12:52:33;3.30;;;3.00;;
950;SDS011;462;48.758;9.256;2022-08-01T13:00:36;3.50;;;3.20;;
950;SDS011;462;48.758;9.256;2022-08-01T13:08:41;3.20;;;3.00;;
950;SDS011;462;48.758;9.256;2022-08-01T13:16:47;4.80;;;4.03;;
950;SDS011;462;48.758;9.256;2022-08-01T13:24:51;2.93;;;2.70;;
950;SDS011;462;48.758;9.256;2022-08-01T13:32:57;4.53;;;3.07;;
950;SDS011;462;48.758;9.256;2022-08-01T13:41:01;3.07;;;2.77;;
950;SDS011;462;48.758;9.256;2022-08-01T13:49:04;3.27;;;3.07;;
950;SDS011;462;48.758;9.256;2022-08-01T13:57:09;3.97;;;3.00;;
950;SDS011;462;48.758;9.256;2022-08-01T14:05:11;2.83;;;2.63;;
950;SDS011;462;48.758;9.256;2022-08-01T14:13:15;2.60;;;2.40;;
950;SDS011;462;48.758;9.256;2022-08-01T14:21:17;2.77;;;2.57;;
950;SDS011;462;48.758;9.256;2022-08-01T14:29:21;2.97;;;2.23;;
950;SDS011;462;48.758;9.256;2022-08-01T14:37:24;3.10;;;2.80;;
950;SDS011;462;48.758;9.256;2022-08-01T14:45:27;3.50;;;2.40;;
950;SDS011;462;48.758;9.256;2022-08-01T14:53:30;3.40;;;2.80;;
950;SDS011;462;48.758;9.256;2022-08-01T15:01:34;2.90;;;2.57;;
950;SDS011;462;48.758;9.256;2022-08-01T15:09:37;2.93;;;2.73;;
950;SDS011;462;48.758;9.256;2022-08-01T15:17:40;3.33;;;2.57;;
950;SDS011;462;48.758;9.256;2022-08-01T15:25:43;5.30;;;2.47;;
950;SDS011;462;48.758;9.256;2022-08-01T15:33:47;2.33;;;2.07;;
950;SDS011;462;48.758;9.256;2022-08-01T15:41:49;4.50;;;2.40;;
950;SDS011;462;48.758;9.256;2022-08-01T15:49:53;2.53;;;2.33;;
950;SDS011;462;48.758;9.256;2022-08-01T15:57:59;2.73;;;2.53;;
950;SDS011;462;48.758;9.256;2022-08-01T16:06:03;2.70;;;2.50;;
950;SDS011;462;48.758;9.256;2022-08-01T16:14:07;2.50;;;2.23;;
950;SDS011;462;48.758;9.256;2022-08-01T16:22:10;2.10;;;1.90;;
950;SDS011;462;48.758;9.256;2022-08-01T16:30:13;3.73;;;1.83;;
950;SDS011;462;48.758;9.256;2022-08-01T16:38:17;10.83;;;2.77;;
950;SDS011;462;48.758;9.256;2022-08-01T16:46:21;1.70;;;1.60;;
950;SDS011;462;48.758;9.256;2022-08-01T16:54:25;2.10;;;1.97;;
950;SDS011;462;48.758;9.256;2022-08-01T17:02:27;2.07;;;1.87;;
950;SDS011;462;48.758;9.256;2022-08-01T17:10:31;3.57;;;2.30;;
950;SDS011;462;48.758;9.256;2022-08-01T17:18:34;2.23;;;1.70;;
950;SDS011;462;48.758;9.256;2022-08-01T17:26:38;2.23;;;1.90;;
950;SDS011;462;48.758;9.256;2022-08-01T17:34:40;2.33;;;1.77;;
950;SDS011;462;48.758;9.256;2022-08-01T17:42:44;5.00;;;2.90;;
950;SDS011;462;48.758;9.256;2022-08-01T17:50:47;3.10;;;2.80;;
950;SDS011;462;48.758;9.256;2022-08-01T17:58:51;3.07;;;2.60;;
950;SDS011;462;48.758;9.256;2022-08-01T18:06:54;4.30;;;2.70;;
950;SDS011;462;48.758;9.256;2022-08-01T18:14:57;5.93;;;2.80;;
950;SDS011;462;48.758;9.256;2022-08-01T18:23:03;3.50;;;3.20;;
950;SDS011;462;48.758;9.256;2022-08-01T18:31:10;3.63;;;3.33;;
950;SDS011;462;48.758;9.256;2022-08-01T18:39:15;4.30;;;3.90;;
950;SDS011;462;48.758;9.256;2022-08-01T18:47:19;6.43;;;5.83;;
950;SDS011;462;48.758;9.256;2022-08-01T18:55:21;3.90;;;2.97;;
950;SDS011;462;48.758;9.256;2022-08-01T19:03:26;3.37;;;3.07;;
950;SDS011;462;48.758;9.256;2022-08-01T19:11:28;3.07;;;2.77;;
950;SDS011;462;48.758;9.256;2022-08-01T19:19:32;8.23;;;6.63;;
950;SDS011;462;48.758;9.256;2022-08-01T19:27:35;5.43;;;4.17;;
950;SDS011;462;48.758;9.256;2022-08-01T19:35:43;3.43;;;2.80;;
950;SDS011;462;48.758;9.256;2022-08-01T19:43:45;3.63;;;3.33;;
950;SDS011;462;48.758;9.256;2022-08-01T19:51:50;3.30;;;2.80;;
950;SDS011;462;48.758;9.256;2022-08-01T19:59:53;4.10;;;2.73;;
950;SDS011;462;48.758;9.256;2022-08-01T20:07:58;5.73;;;2.83;;
950;SDS011;462;48.758;9.256;2022-08-01T20:16:01;4.37;;;3.00;;
950;SDS011;462;48.758;9.256;2022-08-01T20:24:06;3.07;;;2.37;;
950;SDS011;462;48.758;9.256;2022-08-01T20:32:10;3.63;;;2.60;;
950;SDS011;462;48.758;9.256;2022-08-01T20:40:14;6.07;;;2.57;;
950;SDS011;462;48.758;9.256;2022-08-01T20:48:17;5.37;;;3.37;;
950;SDS011;462;48.758;9.256;2022-08-01T20:56:24;1.93;;;1.73;;
950;SDS011;462;48.758;9.256;2022-08-01T21:04:34;1.83;;;1.73;;
950;SDS011;462;48.758;9.256;2022-08-01T21:12:49;2.47;;;1.87;;
950;SDS011;462;48.758;9.256;2022-08-01T21:20:55;1.67;;;1.50;;
950;SDS011;462;48.758;9.256;2022-08-01T21:29:04;1.70;;;1.60;;
950;SDS011;462;48.758;9.256;2022-08-01T21:37:07;1.77;;;1.67;;
950;SDS011;462;48.758;9.256;2022-08-01T21:45:11;5.50;;;2.83;;
950;SDS011;462;48.758;9.256;2022-08-01T21:53:14;2.43;;;1.80;;
950;SDS011;462;48.758;9.256;2022-08-01T22:01:23;3.27;;;2.37;;
950;SDS011;462;48.758;9.256;2022-08-01T22:09:30;2.30;;;1.83;;
950;SDS011;462;48.758;9.256;2022-08-01T22:17:35;3.93;;;2.27;;
950;SDS011;462;48.758;9.256;2022-08-01T22:25:38;1.80;;;1.70;;
950;SDS011;462;48.758;9.256;2022-08-01T22:33:42;2.17;;;1.97;;
950;SDS011;462;48.758;9.256;2022-08-01T22:41:46;2.00;;;1.53;;
950;SDS011;462;48.758;9.256;2022-08-01T22:49:55;4.13;;;1.43;;
950;SDS011;462;48.758;9.256;2022-08-01T22:58:04;3.47;;;1.70;;
950;SDS011;462;48.758;9.256;2022-08-01T23:06:10;1.97;;;1.67;;
950;SDS011;462;48.758;9.256;2022-08-01T23:14:14;3.40;;;1.50;;
950;SDS011;462;48.758;9.256;2022-08-01T23:22:19;1.70;;;1.33;;
950;SDS011;462;48.758;9.256;2022-08-01T23:30:23;1.87;;;1.40;;
950;SDS011;462;48.758;9.256;2022-08-01T23:38:27;3.73;;;2.50;;
950;SDS011;462;48.758;9.256;2022-08-01T23:46:30;2.37;;;1.90;;
950;SDS011;462;48.758;9.256;2022-08-01T23:54:33;2.30;;;1.87;;
